Crawford, Georgia
Current Conditions -  °F | °C
As of 4:51 PM on Saturday 25 Oct 2014 (Local Time) from KAHN Reporting Station
Clear Clear  
Wind Chill: 75°   Ceiling: Unl
Heat Index: 75°   Visibility: 10mi
Dew Point: 38°   Wind: 3mph
Humidity: 26%   Direction: NA
Pressure: 29.99"   Gusts: NA
Location:  33.88°N, 83.15°W
Report Text: KAHN 252051Z VRB03KT 10SM CLR 24/03 A2999 RMK AO2 SLP151 T02390033 56014
Loading
Personal Weather Stations






























Interactive Weather Map
Tropical Storm Tracking
New forecast layout! Learn more

10-Day Weather Forecast

Advertisements
Track Severe Weather on mobile